Página principal
METAR-TAF:

METAR-TAF

Aeroportos :

Ouagadougou, Burkina Faso

latitude: 12-21N, longitude: 001-31W, altura: 316 m

Observação actual do tempo

O boletim foi feito há 1 hora e 12 minutos, às 15:00 UTC
Vento 4 kt de nor-noroeste
Temperatura 36°C
Humidade 42%
Pressão 1007 hPa
Visibilidade 10 km ou mais
Poucas nuvensa uma altura de 2000 ft
Poucas nuvensa uma altura de 3300 ft, Cumulonimbus.

METAR: DFFD 181500Z 34004KT 9999 FEW020 FEW033CB 36/21 Q1007 NOSIG

Hora: 16:12 (16:12 UTC)

Previsão

O boletim foi feito há 5 horas e 12 minutos, às 11:00 UTC
Previsão válida de 18 às 12 UTC a 19 às 18 UTC
Vento 8 kt de oes-sudoeste
Visibilidade 10 km ou mais
Poucas nuvensa uma altura de 2000 ft
Probabilidade 30% :
Temporariamente
de 18 às 15 UTC a 18 às 22 UTC
Visibilidade: 4000 m
Nuvens dispersasa uma altura de 2000 ft
Nuvens dispersasa uma altura de 3600 ft, Cumulonimbus.
trovoada, chuva

TAF: DFFD 181100Z 1812/1918 24008KT 9999 FEW020 PROB30 TEMPO 1815/1822 4000 TSRA SCT020 SCT036CB

Observações e previsões do tempo de mais de 4000 aeroportos (mensagens METAR e TAF).

As estações disponíveis são os pontos amarelos e vermelhos sobre o mapa.

Mova o rato sobre o mapa para ver o nome da estação.

Depois clique no ponto para visualizar as observações e previsões meteorológicas.

Para alterar o mapa : clique nos botões verdes com uma cruz preta para aumentar o zoom; no botão verde com uma pitada de zoom; ou nas setas verdes para mapas adjacentes.


METAR-TAF: